Time;durP1;ratioP1;P1;durP2;ratioP2;P2;SDS_P1;SDS_P2;PMS_P1;PMS_P2;Temp;Humidity;BMP_temperature;BMP_pressure;BME280_temperature;BME280_humidity;BME280_pressure;Samples;Min_cycle;Max_cycle;Signal;HPM_P1;HPM_P2
2022/02/20 00:01:45;;;;;;;;;27.00;22.75;15.00;39.90;;;;;;4901772;29;8888;-67
2022/02/20 00:04:11;;;;;;;;;19.50;17.50;15.00;39.40;;;;;;4901777;29;8773;-68
2022/02/20 00:06:38;;;;;;;;;20.25;18.25;14.80;39.50;;;;;;4901377;29;8805;-67
2022/02/20 00:09:04;;;;;;;;;16.67;16.00;14.80;39.50;;;;;;4901425;29;8770;-67
2022/02/20 00:11:30;;;;;;;;;20.00;17.50;14.90;39.10;;;;;;4901304;29;8927;-68
2022/02/20 00:13:56;;;;;;;;;17.00;12.33;15.00;38.70;;;;;;4901364;29;8895;-69
2022/02/20 00:16:22;;;;;;;;;9.00;9.00;15.00;38.40;;;;;;4900938;29;8793;-69
2022/02/20 00:18:49;;;;;;;;;16.33;13.00;14.50;38.50;;;;;;4900521;29;8824;-68
2022/02/20 00:21:15;;;;;;;;;11.67;10.67;14.10;40.00;;;;;;4901420;29;8965;-69
2022/02/20 00:23:41;;;;;;;;;13.33;10.00;13.60;40.70;;;;;;4901163;29;8781;-67
2022/02/20 00:26:07;;;;;;;;;10.33;9.00;13.60;40.90;;;;;;4901292;29;8848;-69
2022/02/20 00:28:33;;;;;;;;;8.00;8.00;13.70;40.50;;;;;;4901362;29;8793;-69
2022/02/20 00:30:58;;;;;;;;;9.00;6.00;13.80;40.50;;;;;;4901321;29;8790;-68
2022/02/20 00:33:24;;;;;;;;;8.00;5.00;13.80;40.50;;;;;;4900993;29;8813;-68
2022/02/20 00:35:51;;;;;;;;;6.33;4.67;13.60;40.40;;;;;;4901027;29;8785;-69
2022/02/20 00:38:16;;;;;;;;;6.00;5.67;13.90;40.50;;;;;;4915871;29;8812;-69
2022/02/20 00:40:42;;;;;;;;;1.00;1.00;14.00;39.90;;;;;;4900854;29;8845;-69
2022/02/20 00:43:09;;;;;;;;;6.33;6.00;13.90;40.20;;;;;;4900859;29;8801;-68
2022/02/20 00:45:36;;;;;;;;;6.00;5.67;14.10;39.60;;;;;;4900732;29;8940;-68
2022/02/20 00:48:02;;;;;;;;;4.00;4.00;14.30;39.50;;;;;;4901053;29;9606;-68
2022/02/20 00:50:28;;;;;;;;;5.00;5.00;14.50;39.10;;;;;;4901000;29;8773;-67
2022/02/20 00:52:54;;;;;;;;;6.00;5.67;14.50;39.00;;;;;;4900698;29;8790;-68
2022/02/20 00:55:21;;;;;;;;;3.33;3.33;14.60;38.90;;;;;;4900614;29;8781;-68
2022/02/20 00:57:46;;;;;;;;;4.67;4.67;14.40;39.10;;;;;;4900845;29;8793;-68
2022/02/20 01:00:13;;;;;;;;;3.67;3.67;14.60;38.70;;;;;;4900561;29;8793;-70
2022/02/20 01:02:40;;;;;;;;;4.33;4.33;14.30;38.80;;;;;;4900441;29;8781;-69
2022/02/20 01:05:07;;;;;;;;;6.67;6.67;14.60;38.90;;;;;;4899978;29;8920;-67
2022/02/20 01:07:33;;;;;;;;;6.00;5.00;14.70;38.50;;;;;;4900690;29;9598;-67
2022/02/20 01:10:00;;;;;;;;;7.00;7.00;14.70;38.40;;;;;;4900810;29;8809;-68
2022/02/20 01:12:26;;;;;;;;;6.00;6.00;14.80;38.30;;;;;;4900716;29;8817;-69
2022/02/20 01:14:51;;;;;;;;;6.33;6.00;14.90;38.10;;;;;;4900273;29;8778;-68
2022/02/20 01:17:18;;;;;;;;;5.00;5.00;15.00;37.90;;;;;;4900495;29;8792;-68
2022/02/20 01:19:44;;;;;;;;;2.67;2.67;15.00;37.60;;;;;;4900182;29;8882;-68
2022/02/20 01:22:10;;;;;;;;;4.33;3.00;14.80;37.60;;;;;;4900138;29;8786;-69
2022/02/20 01:24:36;;;;;;;;;4.33;4.33;14.70;38.00;;;;;;4900081;29;8965;-69
2022/02/20 01:27:02;;;;;;;;;4.00;4.00;13.80;39.70;;;;;;4900242;29;8817;-67
2022/02/20 01:29:28;;;;;;;;;4.00;4.00;12.70;42.70;;;;;;4899935;29;8801;-67
2022/02/20 01:31:54;;;;;;;;;5.00;3.00;12.10;45.10;;;;;;4899775;29;8804;-68
2022/02/20 01:34:21;;;;;;;;;3.00;3.00;11.60;46.50;;;;;;4900197;29;8820;-68
2022/02/20 01:36:46;;;;;;;;;2.00;2.00;11.80;46.40;;;;;;4900247;29;8807;-67
2022/02/20 01:39:13;;;;;;;;;1.00;1.00;11.80;46.70;;;;;;4900093;29;8793;-67
2022/02/20 01:41:39;;;;;;;;;2.67;2.67;12.50;45.00;;;;;;4899967;29;8941;-70
2022/02/20 01:44:06;;;;;;;;;3.00;3.00;13.10;43.80;;;;;;4899753;29;8793;-67
2022/02/20 01:46:32;;;;;;;;;2.00;2.00;13.40;42.70;;;;;;4899658;29;9519;-70
2022/02/20 01:48:58;;;;;;;;;1.00;1.00;13.50;42.40;;;;;;4899735;29;8793;-68
2022/02/20 01:51:24;;;;;;;;;2.00;2.00;13.60;42.40;;;;;;4899637;29;8808;-69
2022/02/20 01:53:50;;;;;;;;;2.00;2.00;13.30;43.10;;;;;;4899845;29;8770;-68
2022/02/20 01:56:16;;;;;;;;;2.33;1.67;12.80;43.90;;;;;;4898537;29;9642;-68
2022/02/20 01:58:42;;;;;;;;;4.00;4.00;12.50;45.20;;;;;;4899562;29;8826;-68
2022/02/20 02:01:08;;;;;;;;;3.00;2.00;12.30;45.60;;;;;;4899681;29;8792;-67
2022/02/20 02:03:37;;;;;;;;;2.00;2.00;12.50;45.20;;;;;;4899460;29;8914;-68
2022/02/20 02:06:04;;;;;;;;;4.67;3.67;12.60;45.00;;;;;;4899576;29;8828;-69
2022/02/20 02:08:29;;;;;;;;;5.00;3.00;13.20;43.90;;;;;;4899625;29;8792;-66
2022/02/20 02:10:55;;;;;;;;;1.33;1.33;13.40;43.40;;;;;;4899294;29;8828;-69
2022/02/20 02:13:21;;;;;;;;;2.67;2.67;13.70;42.70;;;;;;4899356;29;8772;-69
2022/02/20 02:15:52;;;;;;;;;3.00;2.00;13.60;42.90;;;;;;4899576;29;8882;-69
2022/02/20 02:18:18;;;;;;;;;2.00;2.00;13.10;43.60;;;;;;4899617;29;9529;-67
2022/02/20 02:20:45;;;;;;;;;4.67;4.00;12.50;45.20;;;;;;4899562;29;8768;-69
2022/02/20 02:23:13;;;;;;;;;4.00;4.00;12.60;45.90;;;;;;4899358;29;8795;-68
2022/02/20 02:25:40;;;;;;;;;12.67;12.00;12.20;46.50;;;;;;4899191;29;8954;-69
2022/02/20 02:28:07;;;;;;;;;10.00;9.00;11.90;47.60;;;;;;4899445;29;9596;-67
2022/02/20 02:30:32;;;;;;;;;6.00;5.67;12.40;47.20;;;;;;4899238;29;8777;-68
2022/02/20 02:32:58;;;;;;;;;8.00;6.33;12.30;46.80;;;;;;4898955;29;8847;-68
2022/02/20 02:35:24;;;;;;;;;4.33;4.33;12.50;46.20;;;;;;4899225;29;8799;-68
2022/02/20 02:37:52;;;;;;;;;11.00;11.00;12.50;46.60;;;;;;4899105;29;8879;-67
2022/02/20 02:40:18;;;;;;;;;10.67;10.00;12.20;46.80;;;;;;4899194;29;8848;-68
2022/02/20 02:42:44;;;;;;;;;7.00;5.00;11.90;47.90;;;;;;4901717;29;9510;-67
2022/02/20 02:45:10;;;;;;;;;8.00;8.00;11.80;48.40;;;;;;4903100;29;8837;-67
2022/02/20 02:47:36;;;;;;;;;8.33;8.33;11.60;49.10;;;;;;4903141;29;8792;-68
2022/02/20 02:50:02;;;;;;;;;6.00;6.00;11.60;49.00;;;;;;4902824;29;8814;-67
2022/02/20 02:52:28;;;;;;;;;3.00;3.00;11.60;49.20;;;;;;4902808;29;8784;-68
2022/02/20 02:54:54;;;;;;;;;6.33;5.00;12.00;47.90;;;;;;4902825;29;8788;-67
2022/02/20 02:57:19;;;;;;;;;2.33;2.33;11.80;48.40;;;;;;4917550;29;8787;-68
2022/02/20 02:59:45;;;;;;;;;3.00;3.00;11.60;49.20;;;;;;4902906;29;8800;-69
2022/02/20 03:02:11;;;;;;;;;3.67;3.67;11.70;48.90;;;;;;4902893;29;8862;-68
2022/02/20 03:04:37;;;;;;;;;4.00;4.00;12.10;48.70;;;;;;4902658;29;9509;-68
2022/02/20 03:07:03;;;;;;;;;3.67;3.33;12.00;47.80;;;;;;4902762;29;8936;-70
2022/02/20 03:09:29;;;;;;;;;5.33;5.33;12.30;47.60;;;;;;4902587;29;8831;-68
2022/02/20 03:11:55;;;;;;;;;5.33;5.33;12.40;47.20;;;;;;4902697;29;8848;-69
2022/02/20 03:14:21;;;;;;;;;4.33;4.33;12.20;47.50;;;;;;4902454;29;8788;-67
2022/02/20 03:16:47;;;;;;;;;5.33;5.00;11.70;49.10;;;;;;4902422;29;8788;-67
2022/02/20 03:19:13;;;;;;;;;7.67;6.33;11.60;49.40;;;;;;4902362;29;8792;-67
2022/02/20 03:21:39;;;;;;;;;3.33;3.33;11.20;50.50;;;;;;4917014;29;8831;-68
2022/02/20 03:24:05;;;;;;;;;2.33;2.00;11.30;50.80;;;;;;4902307;29;8792;-68
2022/02/20 03:26:31;;;;;;;;;3.00;3.00;11.10;51.40;;;;;;4902167;29;8816;-66
2022/02/20 03:28:57;;;;;;;;;4.00;4.00;11.50;50.80;;;;;;4902198;29;8799;-67
2022/02/20 03:31:23;;;;;;;;;6.00;4.00;11.70;49.50;;;;;;4902209;29;8787;-66
2022/02/20 03:33:49;;;;;;;;;3.00;3.00;11.40;50.50;;;;;;4901946;29;8844;-67
2022/02/20 03:36:15;;;;;;;;;5.00;5.00;11.30;51.10;;;;;;4902317;29;8791;-68
2022/02/20 03:38:41;;;;;;;;;4.33;4.33;11.40;51.20;;;;;;4902218;29;8800;-67
2022/02/20 03:41:07;;;;;;;;;6.00;6.00;11.20;51.40;;;;;;4901997;29;8831;-67
2022/02/20 03:43:34;;;;;;;;;7.00;4.00;11.00;52.00;;;;;;4902175;29;8775;-67
2022/02/20 03:46:02;;;;;;;;;5.33;5.00;11.50;50.60;;;;;;4902069;29;8823;-68
2022/02/20 03:48:27;;;;;;;;;5.00;5.00;11.80;49.80;;;;;;4901726;29;8887;-68
2022/02/20 03:50:53;;;;;;;;;9.00;6.00;11.80;49.50;;;;;;4902020;29;8780;-68
2022/02/20 03:53:19;;;;;;;;;4.00;4.00;11.70;49.70;;;;;;4900581;29;8780;-67
2022/02/20 03:55:45;;;;;;;;;6.33;5.67;11.50;51.00;;;;;;4901886;29;8814;-67
2022/02/20 03:58:11;;;;;;;;;3.00;3.00;11.70;50.10;;;;;;4901670;29;8788;-68
2022/02/20 04:00:36;;;;;;;;;3.00;3.00;11.70;49.80;;;;;;4901815;29;8780;-69
2022/02/20 04:03:02;;;;;;;;;1.00;1.00;11.60;50.40;;;;;;4901601;29;8792;-68
2022/02/20 04:05:28;;;;;;;;;4.00;4.00;11.80;49.80;;;;;;4901479;29;8923;-70
2022/02/20 04:07:54;;;;;;;;;7.00;7.00;11.70;50.10;;;;;;4901732;29;8780;-67
2022/02/20 04:10:20;;;;;;;;;7.33;4.67;11.60;50.50;;;;;;4901447;29;8887;-68
2022/02/20 04:12:46;;;;;;;;;5.00;4.00;11.70;50.40;;;;;;4901772;29;8838;-68
2022/02/20 04:15:12;;;;;;;;;6.00;4.33;11.80;50.00;;;;;;4901356;29;8784;-68
2022/02/20 04:17:46;;;;;;;;;5.00;4.00;11.50;50.30;;;;;;4901643;29;8859;-69
2022/02/20 04:20:15;;;;;;;;;4.00;4.00;11.50;50.50;;;;;;4901613;29;8772;-67
2022/02/20 04:22:44;;;;;;;;;4.67;4.67;11.40;51.10;;;;;;4901529;29;8859;-68
2022/02/20 04:25:11;;;;;;;;;4.33;3.33;11.70;50.50;;;;;;4901087;29;8784;-67
2022/02/20 04:27:37;;;;;;;;;3.00;3.00;11.70;50.00;;;;;;4901202;29;8776;-68
2022/02/20 04:30:05;;;;;;;;;1.67;1.00;11.20;52.20;;;;;;4901150;29;8780;-69
2022/02/20 04:32:31;;;;;;;;;6.00;4.00;11.30;52.70;;;;;;4900936;29;8911;-68
2022/02/20 04:34:57;;;;;;;;;5.00;5.00;11.40;52.20;;;;;;4901137;29;8788;-67
2022/02/20 04:37:23;;;;;;;;;7.67;7.67;11.30;53.00;;;;;;4901022;29;8906;-70
2022/02/20 04:39:49;;;;;;;;;5.00;4.33;11.00;54.60;;;;;;4901177;29;8922;-70
2022/02/20 04:42:15;;;;;;;;;6.00;5.00;11.50;53.40;;;;;;4901234;29;8943;-68
2022/02/20 04:44:41;;;;;;;;;9.75;7.25;11.50;53.30;;;;;;4900888;29;8907;-67
2022/02/20 04:47:07;;;;;;;;;21.00;21.00;11.60;53.20;;;;;;4900659;29;8823;-69
2022/02/20 04:49:33;;;;;;;;;8.00;7.00;11.60;53.60;;;;;;4900692;29;8887;-69
2022/02/20 04:51:59;;;;;;;;;5.33;5.33;11.50;53.90;;;;;;4900683;29;8808;-67
2022/02/20 04:54:24;;;;;;;;;3.00;3.00;11.60;53.70;;;;;;4900643;29;8788;-68
2022/02/20 04:56:51;;;;;;;;;3.00;3.00;11.30;55.40;;;;;;4900604;29;8811;-68
2022/02/20 04:59:17;;;;;;;;;5.00;4.67;11.10;56.00;;;;;;4900836;29;8792;-69
2022/02/20 05:01:42;;;;;;;;;3.00;3.00;10.50;59.60;;;;;;4900507;29;8846;-68
2022/02/20 05:04:09;;;;;;;;;13.33;9.33;10.90;58.10;;;;;;4900644;29;8796;-68
2022/02/20 05:06:35;;;;;;;;;9.00;8.00;11.40;55.80;;;;;;4900170;29;8828;-68
2022/02/20 05:09:01;;;;;;;;;9.67;9.33;11.10;56.50;;;;;;4900677;29;8784;-72
2022/02/20 05:11:28;;;;;;;;;7.33;6.00;10.50;59.90;;;;;;4900433;29;8851;-68
2022/02/20 05:13:55;;;;;;;;;3.67;3.67;10.60;59.10;;;;;;4915011;29;8812;-68
2022/02/20 05:16:21;;;;;;;;;4.00;4.00;10.00;62.10;;;;;;4900263;29;8820;-70
2022/02/20 05:18:47;;;;;;;;;6.00;6.00;9.70;64.20;;;;;;4900288;29;8776;-69
2022/02/20 05:21:13;;;;;;;;;4.00;3.67;9.80;64.10;;;;;;4900177;29;8814;-68
2022/02/20 05:23:39;;;;;;;;;6.00;5.33;9.60;65.60;;;;;;4900080;29;8804;-65
2022/02/20 05:26:05;;;;;;;;;27.75;24.25;10.00;63.20;;;;;;4899973;29;8824;-64
2022/02/20 05:28:31;;;;;;;;;49.50;38.50;10.30;62.20;;;;;;4900219;29;8776;-65
2022/02/20 05:30:57;;;;;;;;;42.50;33.75;10.60;61.00;;;;;;4899816;29;8805;-66
2022/02/20 05:33:22;;;;;;;;;43.00;39.00;10.60;60.70;;;;;;4899668;29;8957;-65
2022/02/20 05:35:48;;;;;;;;;36.25;34.25;11.10;59.00;;;;;;4899842;29;8794;-65
2022/02/20 05:38:16;;;;;;;;;44.75;39.50;11.00;59.70;;;;;;4899910;29;8888;-66
2022/02/20 05:40:42;;;;;;;;;51.00;43.25;10.50;61.30;;;;;;4899695;29;8936;-66
2022/02/20 05:43:08;;;;;;;;;34.25;34.00;10.80;60.90;;;;;;4899973;29;8785;-64
2022/02/20 05:45:34;;;;;;;;;39.75;33.75;11.10;60.00;;;;;;4899651;29;8821;-66
2022/02/20 05:48:00;;;;;;;;;30.25;26.50;11.20;59.40;;;;;;4900181;29;8807;-66
2022/02/20 05:50:26;;;;;;;;;32.00;23.50;11.30;59.70;;;;;;4899624;29;8778;-66
2022/02/20 05:52:52;;;;;;;;;15.25;14.25;10.60;63.30;;;;;;4899618;29;8880;-67
2022/02/20 05:55:18;;;;;;;;;20.00;18.25;10.20;67.20;;;;;;4899563;29;8794;-68
2022/02/20 05:57:49;;;;;;;;;16.25;16.25;10.50;65.40;;;;;;4899517;29;8785;-65
2022/02/20 06:00:17;;;;;;;;;15.75;15.75;10.10;67.60;;;;;;4899129;29;8853;-64
2022/02/20 06:02:43;;;;;;;;;14.25;14.25;10.30;66.80;;;;;;4899906;29;8813;-64
2022/02/20 06:05:10;;;;;;;;;14.00;14.00;11.00;64.10;;;;;;4899773;29;9481;-62
2022/02/20 06:07:38;;;;;;;;;29.00;29.00;11.60;61.60;;;;;;4899672;29;8781;-64
2022/02/20 06:10:05;;;;;;;;;11.50;9.25;11.30;63.10;;;;;;4899464;29;8789;-64
2022/02/20 06:12:31;;;;;;;;;22.25;20.50;11.10;63.90;;;;;;4899392;29;9754;-64
2022/02/20 06:14:57;;;;;;;;;12.75;12.00;11.20;64.10;;;;;;4898985;29;8806;-65
2022/02/20 06:17:23;;;;;;;;;8.00;8.00;11.40;64.00;;;;;;4898770;29;8778;-64
2022/02/20 06:19:50;;;;;;;;;11.50;11.50;11.40;62.70;;;;;;4899460;29;8785;-64
2022/02/20 06:22:16;;;;;;;;;9.25;8.00;11.30;63.20;;;;;;4899331;29;8791;-64
2022/02/20 06:24:42;;;;;;;;;8.75;8.75;11.10;64.80;;;;;;4898918;29;8857;-65
2022/02/20 06:27:08;;;;;;;;;12.25;12.25;10.80;66.20;;;;;;4899420;29;8821;-65
2022/02/20 06:29:34;;;;;;;;;19.50;19.50;10.90;66.70;;;;;;4898617;29;8840;-65
2022/02/20 06:32:00;;;;;;;;;31.00;29.25;10.70;68.10;;;;;;4898105;29;8798;-65
2022/02/20 06:34:25;;;;;;;;;24.50;24.50;10.30;70.40;;;;;;4898335;29;8805;-64
2022/02/20 06:36:51;;;;;;;;;29.00;27.00;10.10;71.50;;;;;;4899000;29;8782;-62
2022/02/20 06:39:18;;;;;;;;;41.25;35.00;10.40;70.50;;;;;;4898741;29;8821;-64
2022/02/20 06:41:44;;;;;;;;;34.00;32.50;10.90;67.20;;;;;;4899194;29;8829;-64
2022/02/20 06:44:09;;;;;;;;;27.00;24.00;11.20;65.40;;;;;;4899428;29;8786;-64
2022/02/20 06:46:36;;;;;;;;;26.50;26.50;11.30;64.20;;;;;;4899184;29;8809;-64
2022/02/20 06:49:03;;;;;;;;;28.00;27.00;11.60;63.30;;;;;;4898647;29;8960;-64
2022/02/20 06:51:29;;;;;;;;;45.50;40.00;12.00;60.90;;;;;;4898878;29;8821;-64
2022/02/20 06:53:55;;;;;;;;;40.25;35.25;11.20;65.30;;;;;;4898733;29;8885;-64
2022/02/20 06:56:21;;;;;;;;;16.75;13.75;11.10;66.30;;;;;;4899008;29;8796;-64
2022/02/20 06:58:47;;;;;;;;;26.75;25.00;11.20;65.50;;;;;;4898984;29;8785;-64
2022/02/20 07:01:13;;;;;;;;;36.75;33.00;11.20;66.10;;;;;;4898848;29;8813;-64
2022/02/20 07:03:38;;;;;;;;;16.00;14.50;11.50;65.40;;;;;;4898514;29;8835;-64
2022/02/20 07:06:04;;;;;;;;;10.00;10.00;11.90;63.60;;;;;;4898997;29;8990;-64
2022/02/20 07:08:31;;;;;;;;;11.00;10.75;11.70;63.70;;;;;;4898869;29;8793;-64
2022/02/20 07:10:57;;;;;;;;;11.00;11.00;11.50;64.80;;;;;;4898307;29;8821;-64
2022/02/20 07:13:22;;;;;;;;;10.50;10.00;11.90;63.60;;;;;;4898346;29;8805;-65
2022/02/20 07:15:48;;;;;;;;;13.00;13.00;12.10;61.90;;;;;;4898984;29;8877;-64
2022/02/20 07:18:15;;;;;;;;;12.75;9.50;12.10;61.50;;;;;;4897491;29;8867;-64
2022/02/20 07:20:42;;;;;;;;;18.00;15.50;12.20;61.00;;;;;;4898905;29;8797;-66
2022/02/20 07:23:08;;;;;;;;;20.75;19.75;12.00;61.90;;;;;;4898387;29;8813;-66
2022/02/20 07:25:34;;;;;;;;;19.50;18.00;12.40;60.50;;;;;;4898727;29;8809;-66
2022/02/20 07:28:00;;;;;;;;;18.50;18.25;12.60;59.50;;;;;;4899671;29;8893;-66
2022/02/20 07:30:28;;;;;;;;;33.00;31.75;12.50;60.40;;;;;;4902410;29;8789;-65
2022/02/20 07:33:04;;;;;;;;;33.50;28.00;12.50;60.10;;;;;;4901908;29;8824;-66
2022/02/20 07:35:31;;;;;;;;;23.75;23.00;11.80;64.00;;;;;;4901922;29;8797;-64
2022/02/20 07:37:57;;;;;;;;;25.75;20.75;11.60;65.40;;;;;;4902190;29;8793;-65
2022/02/20 07:40:24;;;;;;;;;39.50;35.00;11.60;64.70;;;;;;4887089;29;8815;-64
2022/02/20 07:42:50;;;;;;;;;34.50;34.50;11.30;67.50;;;;;;4883428;29;9795;-65
2022/02/20 07:45:16;;;;;;;;;38.25;34.25;10.80;69.70;;;;;;4883218;29;8795;-64
2022/02/20 07:47:53;;;;;;;;;36.25;32.50;10.50;74.60;;;;;;4883025;29;8810;-64
2022/02/20 07:50:24;;;;;;;;;33.50;31.75;10.70;71.10;;;;;;4883301;29;9471;-66
2022/02/20 07:52:50;;;;;;;;;44.50;36.25;10.70;72.40;;;;;;4882011;29;8800;-65
2022/02/20 07:55:17;;;;;;;;;50.00;41.50;10.50;72.60;;;;;;4882395;29;8811;-65
2022/02/20 07:57:46;;;;;;;;;46.50;42.00;10.90;72.60;;;;;;4883201;29;8772;-65
2022/02/20 08:00:19;;;;;;;;;46.00;39.25;11.10;69.80;;;;;;4883328;29;8879;-65
2022/02/20 08:02:46;;;;;;;;;38.75;34.75;11.10;70.50;;;;;;4882900;29;8791;-65
2022/02/20 08:05:12;;;;;;;;;52.00;43.75;11.50;67.10;;;;;;4882977;29;8799;-66
2022/02/20 08:07:38;;;;;;;;;58.50;49.00;11.80;65.80;;;;;;4897568;29;8795;-64
2022/02/20 08:10:05;;;;;;;;;61.25;51.00;11.40;66.60;;;;;;4882256;29;8818;-64
2022/02/20 08:12:31;;;;;;;;;70.00;54.00;10.70;71.00;;;;;;4882657;29;8819;-64
2022/02/20 08:14:57;;;;;;;;;56.00;44.50;11.30;68.40;;;;;;4882549;29;8791;-65
2022/02/20 08:17:23;;;;;;;;;49.75;38.00;11.10;69.20;;;;;;4882810;29;8799;-65
2022/02/20 08:19:49;;;;;;;;;13.75;13.75;11.10;68.50;;;;;;4882518;29;8811;-65
2022/02/20 08:22:15;;;;;;;;;22.25;21.50;11.40;67.50;;;;;;4882464;29;9177;-65
2022/02/20 08:24:43;;;;;;;;;23.00;22.25;11.50;66.00;;;;;;4881884;29;8823;-66
2022/02/20 08:27:09;;;;;;;;;16.50;16.50;11.10;69.60;;;;;;4882561;29;8918;-64
2022/02/20 08:29:35;;;;;;;;;30.50;28.25;11.00;69.80;;;;;;4882542;29;8867;-63
2022/02/20 08:32:02;;;;;;;;;44.25;39.50;11.00;69.80;;;;;;4882083;29;8784;-64
2022/02/20 08:34:29;;;;;;;;;44.25;39.00;11.50;67.10;;;;;;4882324;29;8804;-65
2022/02/20 08:36:55;;;;;;;;;54.25;44.25;11.70;67.30;;;;;;4882462;29;8814;-64
2022/02/20 08:39:21;;;;;;;;;64.25;51.75;11.60;67.60;;;;;;4881003;29;8803;-64
2022/02/20 08:41:46;;;;;;;;;50.25;38.25;11.50;67.50;;;;;;4882169;29;8804;-64
2022/02/20 08:44:12;;;;;;;;;42.00;37.50;11.70;66.30;;;;;;4882144;29;8780;-65
2022/02/20 08:46:38;;;;;;;;;48.00;39.75;11.50;64.90;;;;;;4882003;29;8830;-64
2022/02/20 08:49:04;;;;;;;;;59.25;48.00;11.20;66.60;;;;;;4882191;29;8791;-64
2022/02/20 08:51:30;;;;;;;;;54.75;44.50;11.40;66.70;;;;;;4882233;29;8775;-64
2022/02/20 08:53:55;;;;;;;;;58.00;46.25;11.10;67.30;;;;;;4881437;29;8799;-65
2022/02/20 08:56:26;;;;;;;;;59.00;50.25;10.80;70.30;;;;;;4882109;29;8884;-64
2022/02/20 08:58:55;;;;;;;;;54.75;45.75;10.40;73.50;;;;;;4882087;29;8787;-63
2022/02/20 09:01:20;;;;;;;;;54.00;43.50;10.30;75.80;;;;;;4882063;29;8764;-63
2022/02/20 09:03:46;;;;;;;;;62.25;50.50;10.60;73.60;;;;;;4882060;29;8779;-63
2022/02/20 09:06:12;;;;;;;;;54.50;46.75;10.70;73.40;;;;;;4881885;29;8823;-64
2022/02/20 09:08:38;;;;;;;;;47.50;40.75;10.10;75.30;;;;;;4881316;29;8768;-63
2022/02/20 09:11:04;;;;;;;;;35.25;32.75;10.50;72.80;;;;;;4881776;29;8928;-63
2022/02/20 09:13:30;;;;;;;;;47.00;38.25;10.60;70.70;;;;;;4881550;29;8784;-63
2022/02/20 09:15:56;;;;;;;;;45.00;40.25;10.50;72.30;;;;;;4880478;29;8860;-63
2022/02/20 09:18:22;;;;;;;;;35.25;31.50;10.40;70.60;;;;;;4881397;29;8806;-64
2022/02/20 09:20:47;;;;;;;;;54.25;46.50;10.80;68.90;;;;;;4881450;29;8776;-64
2022/02/20 09:23:13;;;;;;;;;48.75;42.00;11.10;66.40;;;;;;4880891;29;8799;-66
2022/02/20 09:25:41;;;;;;;;;53.00;43.50;11.30;66.30;;;;;;4881082;29;8945;-65
2022/02/20 09:28:07;;;;;;;;;55.00;46.75;11.30;66.30;;;;;;4881290;29;8792;-65
2022/02/20 09:30:33;;;;;;;;;48.25;41.75;11.30;66.90;;;;;;4881205;29;8788;-65
2022/02/20 09:32:59;;;;;;;;;48.00;41.25;11.50;66.30;;;;;;4880943;29;8824;-66
2022/02/20 09:35:25;;;;;;;;;45.75;37.50;11.00;66.80;;;;;;4881158;29;8834;-66
2022/02/20 09:37:52;;;;;;;;;36.25;33.50;10.90;68.00;;;;;;4881162;29;8787;-67
2022/02/20 09:40:18;;;;;;;;;39.25;36.25;11.20;67.10;;;;;;4881148;29;8876;-67
2022/02/20 09:42:44;;;;;;;;;49.00;40.75;11.10;68.10;;;;;;4881445;29;8811;-67
2022/02/20 09:45:10;;;;;;;;;32.75;30.50;11.50;66.10;;;;;;4881271;29;8775;-67
2022/02/20 09:47:39;;;;;;;;;34.50;34.50;11.50;64.90;;;;;;4881248;29;8810;-67
2022/02/20 09:50:06;;;;;;;;;40.75;38.50;11.70;63.90;;;;;;4881182;29;8788;-67
2022/02/20 09:52:33;;;;;;;;;34.50;34.00;11.90;63.80;;;;;;4878348;29;8806;-67
2022/02/20 09:54:59;;;;;;;;;33.50;30.00;11.30;66.90;;;;;;4880886;29;9214;-67
2022/02/20 09:57:25;;;;;;;;;33.00;30.00;10.70;70.70;;;;;;4880880;29;8806;-67
2022/02/20 09:59:51;;;;;;;;;35.25;33.50;10.50;73.80;;;;;;4880833;29;8803;-67
2022/02/20 10:02:19;;;;;;;;;31.50;30.75;10.70;72.20;;;;;;4880815;29;8776;-67
2022/02/20 10:04:53;;;;;;;;;42.00;33.75;11.20;69.40;;;;;;4880946;29;8822;-67
2022/02/20 10:07:37;;;;;;;;;33.00;31.75;11.30;66.50;;;;;;4880766;29;8831;-66
2022/02/20 10:10:06;;;;;;;;;38.25;33.00;11.70;64.80;;;;;;4880619;29;8795;-67
2022/02/20 10:12:32;;;;;;;;;49.50;41.25;11.30;66.70;;;;;;4880962;29;8926;-66
2022/02/20 10:15:00;;;;;;;;;21.75;21.75;11.30;68.80;;;;;;4880574;29;8808;-68
2022/02/20 10:17:28;;;;;;;;;30.00;29.00;11.90;63.30;;;;;;4880913;29;8861;-66
2022/02/20 10:19:58;;;;;;;;;32.00;31.00;12.40;61.50;;;;;;4880590;29;8783;-68
2022/02/20 10:22:44;;;;;;;;;34.00;31.50;12.80;59.80;;;;;;4880674;29;8772;-65
2022/02/20 10:25:13;;;;;;;;;37.50;33.50;13.00;58.40;;;;;;4880846;29;8914;-63
2022/02/20 10:27:53;;;;;;;;;32.50;30.75;13.40;57.60;;;;;;4880469;29;8910;-64
2022/02/20 10:30:28;;;;;;;;;37.25;34.00;13.70;56.60;;;;;;4880362;29;8803;-66
2022/02/20 10:33:06;;;;;;;;;52.75;45.00;13.80;55.30;;;;;;4880500;29;8815;-65
2022/02/20 10:35:37;;;;;;;;;54.00;46.00;14.00;54.40;;;;;;4880423;29;8783;-66
2022/02/20 10:38:20;;;;;;;;;44.25;40.50;13.90;54.00;;;;;;4880677;29;9513;-67
2022/02/20 10:40:54;;;;;;;;;46.50;40.50;14.00;54.40;;;;;;4880305;29;8890;-66
2022/02/20 10:43:43;;;;;;;;;44.50;40.25;14.20;53.50;;;;;;4880368;29;8818;-66
2022/02/20 10:46:16;;;;;;;;;51.25;40.75;14.20;52.50;;;;;;4880361;29;8851;-67
2022/02/20 10:48:47;;;;;;;;;45.00;38.75;14.30;51.70;;;;;;4880517;29;8876;-65
2022/02/20 10:51:17;;;;;;;;;57.00;46.50;14.30;52.60;;;;;;4880374;29;8779;-65
2022/02/20 10:53:44;;;;;;;;;58.50;49.75;14.40;51.30;;;;;;4880576;29;9438;-65
2022/02/20 10:56:10;;;;;;;;;50.75;42.75;14.50;50.50;;;;;;4880268;29;8796;-65
2022/02/20 10:58:41;;;;;;;;;51.50;43.25;14.60;50.10;;;;;;4880254;29;9065;-65
2022/02/20 11:01:18;;;;;;;;;37.25;34.50;14.00;51.70;;;;;;4880235;29;8776;-65
2022/02/20 11:03:44;;;;;;;;;44.00;38.50;12.80;55.90;;;;;;4882357;29;8784;-65
2022/02/20 11:06:10;;;;;;;;;61.25;48.25;12.60;55.40;;;;;;4883724;29;8807;-65
2022/02/20 11:08:35;;;;;;;;;71.00;54.75;12.90;56.70;;;;;;4883966;29;8810;-65
2022/02/20 11:11:36;;;;;;;;;70.25;56.75;12.90;57.60;;;;;;4883716;29;9455;-65
2022/02/20 11:13:51;;;;;;;;;63.25;52.00;12.60;57.50;;;;;;4883624;29;8831;-68
2022/02/20 11:16:18;;;;;;;;;66.25;53.50;13.10;54.80;;;;;;4883921;29;8787;-65
2022/02/20 11:18:45;;;;;;;;;66.00;53.00;13.00;54.40;;;;;;4883696;29;8795;-65
2022/02/20 11:21:13;;;;;;;;;68.75;56.00;13.50;53.70;;;;;;4883541;29;8792;-65
2022/02/20 11:23:42;;;;;;;;;67.25;53.25;14.00;53.10;;;;;;4882442;29;8811;-64
2022/02/20 11:26:11;;;;;;;;;69.25;56.25;14.60;51.30;;;;;;4883476;29;8827;-64
2022/02/20 11:28:38;;;;;;;;;62.75;50.75;15.40;49.30;;;;;;4883440;29;8768;-64
2022/02/20 11:31:07;;;;;;;;;69.50;54.75;15.10;47.20;;;;;;4883328;29;8784;-65
2022/02/20 11:33:34;;;;;;;;;67.00;54.00;15.30;47.50;;;;;;4883200;29;8823;-65
2022/02/20 11:36:00;;;;;;;;;65.50;52.75;16.60;46.20;;;;;;4883554;29;8803;-65
2022/02/20 11:38:26;;;;;;;;;70.75;57.50;17.90;43.30;;;;;;4883299;29;8891;-65
2022/02/20 11:40:53;;;;;;;;;66.00;53.75;18.60;39.80;;;;;;4883364;29;8930;-65
2022/02/20 11:43:36;;;;;;;;;62.00;49.75;19.40;38.30;;;;;;4883399;29;8799;-66
2022/02/20 11:46:06;;;;;;;;;52.75;43.50;20.60;36.30;;;;;;4883134;29;8827;-65
2022/02/20 11:48:32;;;;;;;;;46.33;39.00;24.30;32.20;;;;;;4883225;29;8894;-66
2022/02/20 11:51:17;;;;;;;;;42.00;36.00;29.00;26.40;;;;;;4883020;29;8787;-65
2022/02/20 11:53:45;;;;;;;;;35.67;31.33;31.30;23.70;;;;;;4883034;29;8795;-64
2022/02/20 11:56:12;;;;;;;;;41.33;35.67;31.00;22.70;;;;;;4882954;29;8806;-64
2022/02/20 11:58:40;;;;;;;;;37.67;33.67;31.30;22.50;;;;;;4882818;29;8799;-69
2022/02/20 12:01:09;;;;;;;;;46.67;40.00;30.70;21.40;;;;;;4882847;29;8788;-63
2022/02/20 12:03:44;;;;;;;;;45.67;39.67;27.60;23.60;;;;;;4883092;29;9474;-63
2022/02/20 12:06:18;;;;;;;;;40.67;35.33;25.50;25.60;;;;;;4882751;29;8830;-63
2022/02/20 12:08:49;;;;;;;;;27.67;27.67;25.50;25.60;;;;;;4882609;29;8791;-64
2022/02/20 12:11:19;;;;;;;;;23.33;23.33;29.40;23.70;;;;;;4882678;29;8832;-63
2022/02/20 12:14:00;;;;;;;;;19.33;19.33;32.10;21.60;;;;;;4882495;29;11534;-64
2022/02/20 12:16:33;;;;;;;;;22.00;22.00;34.90;19.80;;;;;;4882030;29;11559;-64
2022/02/20 12:19:20;;;;;;;;;24.00;23.00;35.20;19.10;;;;;;4882366;29;11681;-64
2022/02/20 12:21:52;;;;;;;;;21.33;21.33;34.00;19.40;;;;;;4882655;29;12222;-64
2022/02/20 12:24:21;;;;;;;;;19.33;19.33;30.80;20.70;;;;;;4882263;29;11562;-64
2022/02/20 12:26:54;;;;;;;;;21.00;21.00;25.90;24.20;;;;;;4882177;29;11582;-64
2022/02/20 12:29:23;;;;;;;;;21.00;21.00;24.20;26.50;;;;;;4882505;29;8775;-63
2022/02/20 12:32:02;;;;;;;;;25.67;25.67;22.50;29.00;;;;;;4882317;29;8792;-63
2022/02/20 12:34:49;;;;;;;;;18.00;18.00;20.20;32.80;;;;;;4882213;29;8791;-66
2022/02/20 12:37:18;;;;;;;;;20.33;20.33;19.70;34.30;;;;;;4885327;29;9681;-64
2022/02/20 12:39:44;;;;;;;;;17.00;17.00;20.50;34.40;;;;;;4901160;29;9468;-65
2022/02/20 12:42:10;;;;;;;;;15.67;15.67;21.80;30.80;;;;;;4901147;29;8828;-66
2022/02/20 12:44:40;;;;;;;;;21.33;21.33;20.40;32.90;;;;;;4900821;29;8821;-68
2022/02/20 12:47:07;;;;;;;;;19.00;19.00;20.90;33.10;;;;;;4900686;29;8844;-64